Star Phenix — JG5422 — position and weather

sailwx.info

Track history (hours):
 
Tides and Currents Weather Stations Pressure Air Temp Water Temp Dewpoint Dewpoint Depression Visibility Wind Speed Wind Dir Waves Ship Positions

Star Phenix

Last reported at 2018-Apr-26 03:27 UTC. Time now 2018-Apr-26 03:39 UTC.
Position N 33°56' E 131°12'.

Length 96 m; draft 4.9 m.

Type: Tanker. MMSI: 431100206.

Date/timePositionNaut miles runAvg speedWind from/ knotsBaromVisibWave heightAir tempDewpointWater temp
2018-Apr-26 03:27N 33°56' E 131°12'0 0.0
2018-Apr-26 03:00N 33°56' E 131°12'0 0.0
2018-Apr-26 02:27N 33°56' E 131°12'0 0.0
2018-Apr-26 02:00N 33°56' E 131°12'0 0.0
2018-Apr-26 01:30N 33°56' E 131°12'0 0.0
2018-Apr-26 01:00N 33°56' E 131°12'0 0.0
2018-Apr-26 00:30N 33°56' E 131°12'1 3.0
2018-Apr-26 00:01N 33°55' E 131°12'1 1.7
2018-Apr-25 23:30N 33°54' E 131°11'0 0.1
2018-Apr-25 23:00N 33°54' E 131°11'0 0.0
2018-Apr-25 22:30N 33°54' E 131°11'0 0.0
2018-Apr-25 22:00N 33°54' E 131°11'0 0.0
2018-Apr-25 21:30N 33°54' E 131°11'0 0.0
2018-Apr-25 21:00N 33°54' E 131°11'0 0.0
2018-Apr-25 20:30N 33°54' E 131°11'0 0.0
2018-Apr-25 20:00N 33°54' E 131°11'0 0.0
2018-Apr-25 19:27N 33°54' E 131°11'0 0.0
2018-Apr-25 19:00N 33°54' E 131°11'0 0.0
2018-Apr-25 18:30N 33°54' E 131°11'0 0.0
2018-Apr-25 18:00N 33°54' E 131°11'0 0.0
2018-Apr-25 17:30N 33°54' E 131°11'0 0.0
2018-Apr-25 17:00N 33°54' E 131°11'0 0.1
2018-Apr-25 16:30N 33°54' E 131°11'0 0.0
2018-Apr-25 16:00N 33°54' E 131°11'0 0.0
2018-Apr-25 15:30N 33°54' E 131°11'0 0.0
2018-Apr-25 15:00N 33°54' E 131°11'0 0.0
2018-Apr-25 14:30N 33°54' E 131°11'0 0.0
2018-Apr-25 14:00N 33°54' E 131°11'0 0.0
2018-Apr-25 13:30N 33°54' E 131°11'0 0.0
2018-Apr-25 13:00N 33°54' E 131°11'0 0.8
2018-Apr-25 12:31N 33°54' E 131°11'5 9.9
2018-Apr-25 12:01N 33°52' E 131°17'713.1
2018-Apr-25 11:31N 33°50' E 131°24'713.0
2018-Apr-25 11:00N 33°49' E 131°32'612.6
2018-Apr-25 10:31N 33°48' E 131°39'612.8
2018-Apr-25 10:00N 33°47' E 131°47'612.7
2018-Apr-25 09:30N 33°46' E 131°55'713.2
2018-Apr-25 09:00N 33°46' E 132°03'713.8
2018-Apr-25 08:28N 33°49' E 132°10'613.3
2018-Apr-25 08:00N 33°50' E 132°18'812.4
2018-Apr-25 07:20N 33°54' E 132°27'412.0
2018-Apr-25 06:58N 33°57' E 132°29'713.3
2018-Apr-25 06:25N 34°04' E 132°25'613.4
2018-Apr-25 06:00N 34°08' E 132°20'612.2
2018-Apr-25 05:31N 34°12' E 132°14'0 0.2
2018-Apr-25 04:53N 34°12' E 132°14'0 0.0
2018-Apr-25 04:26N 34°12' E 132°14'0 0.0
2018-Apr-25 03:38N 34°12' E 132°14'0 0.0
2018-Apr-25 03:23N 34°12' E 132°14'0 0.0
2018-Apr-24 23:38N 34°12' E 132°14'0 0.4
2018-Apr-24 23:29N 34°12' E 132°14'3 5.6
2018-Apr-24 22:53N 34°10' E 132°18'0 0.0
2018-Apr-24 22:29N 34°10' E 132°18'0 0.0
2018-Apr-24 21:59N 34°10' E 132°18'0 0.0
2018-Apr-24 21:29N 34°10' E 132°18'0 0.0
2018-Apr-24 20:59N 34°10' E 132°18'0 0.0
2018-Apr-24 20:26N 34°10' E 132°18'2 4.9
2018-Apr-24 20:00N 34°08' E 132°20'713.4
2018-Apr-24 19:28N 34°04' E 132°26'612.2
2018-Apr-24 18:59N 34°02' E 132°33'613.0
2018-Apr-24 18:30N 34°05' E 132°39'7712.1
2018-Apr-24 12:10N 34°26' E 134°08'412.1
2018-Apr-24 11:51N 34°24' E 134°13'512.6
2018-Apr-24 11:27N 34°24' E 134°19'612.8
2018-Apr-24 10:58N 34°26' E 134°26'612.6
2018-Apr-24 10:30N 34°29' E 134°32'612.5
2018-Apr-24 10:00N 34°31' E 134°39'613.0
2018-Apr-24 09:30N 34°34' E 134°46'713.6
2018-Apr-24 09:00N 34°36' E 134°54'713.5
2018-Apr-24 08:30N 34°37' E 135°02'713.2
2018-Apr-24 08:00N 34°35' E 135°10'713.4
2018-Apr-24 07:30N 34°34' E 135°18'612.1
2018-Apr-24 07:00N 34°33' E 135°25'0 0.7
2018-Apr-24 06:30N 34°33' E 135°25'0 0.0
2018-Apr-24 06:00N 34°33' E 135°25'0 0.0
2018-Apr-24 05:31N 34°33' E 135°25'0 0.0
2018-Apr-24 05:00N 34°33' E 135°25'0 0.0
2018-Apr-24 04:30N 34°33' E 135°25'0 0.0
2018-Apr-24 04:00N 34°33' E 135°25'0 0.0
2018-Apr-24 03:30N 34°33' E 135°25'0 0.0
2018-Apr-24 03:00N 34°33' E 135°25'0 0.0
2018-Apr-24 02:30N 34°33' E 135°25'0 0.0
2018-Apr-24 02:00N 34°33' E 135°25'0 0.0
2018-Apr-24 01:30N 34°33' E 135°25'0 0.0
2018-Apr-24 01:00N 34°33' E 135°25'0 0.0
2018-Apr-24 00:30N 34°33' E 135°25'0 0.0
2018-Apr-24 00:00N 34°33' E 135°25'0 0.1
2018-Apr-23 23:30N 34°33' E 135°25'1 2.5
2018-Apr-23 23:01N 34°33' E 135°24'5 9.7
2018-Apr-23 22:30N 34°32' E 135°18'0 0.1
2018-Apr-23 22:00N 34°32' E 135°18'0 0.0
2018-Apr-23 21:31N 34°32' E 135°18'0 0.0
2018-Apr-23 21:01N 34°32' E 135°18'0 0.1
2018-Apr-23 20:31N 34°32' E 135°18'510.8
2018-Apr-23 20:01N 34°34' E 135°12'713.7
2018-Apr-23 19:30N 34°35' E 135°04'510.7
2018-Apr-23 19:00N 34°36' E 134°58'612.0
2018-Apr-23 18:30N 34°34' E 134°51'612.5
2018-Apr-23 18:00N 34°32' E 134°44'713.6
2018-Apr-23 17:30N 34°29' E 134°36'714.1
2018-Apr-23 17:00N 34°26' E 134°28'713.6
2018-Apr-23 16:30N 34°24' E 134°21'713.3
2018-Apr-23 16:00N 34°24' E 134°13'7711.8
2018-Apr-23 09:29N 34°05' E 132°42'713.7
2018-Apr-23 09:00N 34°03' E 132°35'712.3
2018-Apr-23 08:26N 34°03' E 132°27'614.0
2018-Apr-23 08:00N 34°07' E 132°21'713.4
2018-Apr-23 07:31N 34°11' E 132°15'1 0.5
2018-Apr-23 06:09N 34°12' E 132°14'0 0.0
2018-Apr-23 05:57N 34°12' E 132°14'0 0.0
2018-Apr-23 05:27N 34°12' E 132°14'0 0.0
2018-Apr-23 04:57N 34°12' E 132°14'0 0.0
2018-Apr-23 04:27N 34°12' E 132°14'0 0.0
2018-Apr-23 03:57N 34°12' E 132°14'0 0.0
2018-Apr-23 03:30N 34°12' E 132°14'0 0.0
2018-Apr-23 02:57N 34°12' E 132°14'0 0.0
2018-Apr-23 02:27N 34°12' E 132°14'0 0.0
2018-Apr-23 01:48N 34°12' E 132°14'0 0.0
2018-Apr-23 01:27N 34°12' E 132°14'0 0.0
2018-Apr-23 00:54N 34°12' E 132°14'0 0.0
2018-Apr-22 23:12N 34°12' E 132°14'0 0.0
2018-Apr-22 22:57N 34°12' E 132°14'2 3.9
2018-Apr-22 22:30N 34°13' E 132°15'0 0.6
2018-Apr-22 21:59N 34°13' E 132°14'0 0.0
2018-Apr-22 21:29N 34°13' E 132°14'0 0.0
2018-Apr-22 20:59N 34°13' E 132°14'0 0.0
2018-Apr-22 20:29N 34°13' E 132°14'0 0.0
2018-Apr-22 19:59N 34°13' E 132°14'0 0.0
2018-Apr-22 19:29N 34°13' E 132°14'0 0.0
2018-Apr-22 18:53N 34°13' E 132°14'0 0.0
2018-Apr-22 18:29N 34°13' E 132°14'0 0.0
2018-Apr-22 17:59N 34°13' E 132°14'0 0.0
2018-Apr-22 17:29N 34°13' E 132°14'0 0.0
2018-Apr-22 16:47N 34°13' E 132°14'0 0.0
2018-Apr-22 16:29N 34°13' E 132°14'0 0.0
2018-Apr-22 15:59N 34°13' E 132°14'0 0.0
2018-Apr-22 15:23N 34°13' E 132°14'0 0.0
2018-Apr-22 14:59N 34°13' E 132°14'0 0.0
2018-Apr-22 14:17N 34°13' E 132°14'0 0.0
2018-Apr-22 13:59N 34°13' E 132°14'0 0.0
2018-Apr-22 13:29N 34°13' E 132°14'0 0.0
2018-Apr-22 12:53N 34°13' E 132°14'0 0.0
2018-Apr-22 12:29N 34°13' E 132°14'0 0.0
2018-Apr-22 10:47N 34°13' E 132°14'0 0.0
2018-Apr-22 10:11N 34°13' E 132°14'0 0.0
2018-Apr-22 09:47N 34°13' E 132°14'0 0.0
2018-Apr-22 05:17N 34°13' E 132°14'0 0.0
2018-Apr-22 04:53N 34°13' E 132°14'0 0.0
2018-Apr-22 02:35N 34°13' E 132°14'0 0.0
2018-Apr-22 02:29N 34°13' E 132°14'0 0.0
2018-Apr-22 01:35N 34°13' E 132°14'0 0.0
2018-Apr-22 01:17N 34°13' E 132°14'0 0.0
2018-Apr-22 00:53N 34°13' E 132°14'0 0.0
2018-Apr-21 22:17N 34°13' E 132°14'0 0.0
2018-Apr-21 21:59N 34°13' E 132°14'0 0.0
2018-Apr-21 21:29N 34°13' E 132°14'0 0.0
2018-Apr-21 20:53N 34°13' E 132°14'0 0.0
2018-Apr-21 20:29N 34°13' E 132°14'0 0.0
2018-Apr-21 19:53N 34°13' E 132°14'0 0.0
2018-Apr-21 19:23N 34°13' E 132°14'0 0.0
2018-Apr-21 18:59N 34°13' E 132°14'0 0.0
2018-Apr-21 18:29N 34°13' E 132°14'0 0.0
2018-Apr-21 17:59N 34°13' E 132°14'0 0.0
2018-Apr-21 17:29N 34°13' E 132°14'0 0.0
2018-Apr-21 16:53N 34°13' E 132°14'0 0.0
2018-Apr-21 16:29N 34°13' E 132°14'0 0.0
2018-Apr-21 15:59N 34°13' E 132°14'0 0.0
2018-Apr-21 15:29N 34°13' E 132°14'0 0.0
2018-Apr-21 14:53N 34°13' E 132°14'0 0.0
2018-Apr-21 14:23N 34°13' E 132°14'0 0.0
2018-Apr-21 13:59N 34°13' E 132°14'0 0.0
2018-Apr-21 00:29N 34°13' E 132°14'0 0.0
2018-Apr-20 23:29N 34°13' E 132°14'0 0.0
2018-Apr-20 22:32N 34°13' E 132°14'0 0.0
2018-Apr-20 22:29N 34°13' E 132°14'0 0.0
2018-Apr-20 21:53N 34°13' E 132°14'0 0.0
2018-Apr-20 21:26N 34°13' E 132°14'0 0.0
2018-Apr-20 20:59N 34°13' E 132°14'0 0.0
2018-Apr-20 20:23N 34°13' E 132°14'0 0.0
2018-Apr-20 19:59N 34°13' E 132°14'0 0.0
2018-Apr-20 19:29N 34°13' E 132°14'0 0.0
2018-Apr-20 18:59N 34°13' E 132°14'0 0.0
2018-Apr-20 18:29N 34°13' E 132°14'0 0.0
2018-Apr-20 17:59N 34°13' E 132°14'0 0.0
2018-Apr-20 17:23N 34°13' E 132°14'0 0.0
2018-Apr-20 16:59N 34°13' E 132°14'0 0.0
2018-Apr-20 16:29N 34°13' E 132°14'0 0.0
2018-Apr-20 15:59N 34°13' E 132°14'0 0.0
2018-Apr-20 15:29N 34°13' E 132°14'0 0.0
2018-Apr-20 14:59N 34°13' E 132°14'0 0.0
2018-Apr-20 14:29N 34°13' E 132°14'0 0.0
2018-Apr-20 13:53N 34°13' E 132°14'0 0.0
2018-Apr-20 13:29N 34°13' E 132°14'0 0.0
2018-Apr-20 12:59N 34°13' E 132°14'0 0.0
2018-Apr-20 02:35N 34°13' E 132°14'0 0.0
2018-Apr-20 02:29N 34°13' E 132°14'0 0.0
2018-Apr-20 01:59N 34°13' E 132°14'0 0.0
2018-Apr-20 01:23N 34°13' E 132°14'0 0.0
2018-Apr-20 00:53N 34°13' E 132°14'0 0.0
2018-Apr-20 00:29N 34°13' E 132°14'0 0.0
2018-Apr-19 23:59N 34°13' E 132°14'0 0.4
2018-Apr-19 23:16N 34°13' E 132°15'1 3.3
2018-Apr-19 22:56N 34°13' E 132°16'0 0.0
2018-Apr-19 22:29N 34°13' E 132°16'0 0.0
2018-Apr-19 21:59N 34°13' E 132°16'0 0.0
2018-Apr-19 21:29N 34°13' E 132°16'0 0.0
2018-Apr-19 20:59N 34°13' E 132°16'0 0.0
2018-Apr-19 20:26N 34°13' E 132°16'0 0.1
2018-Apr-19 20:00N 34°13' E 132°16'4 8.6
2018-Apr-19 19:30N 34°09' E 132°19'713.4
2018-Apr-19 19:00N 34°05' E 132°25'612.5
2018-Apr-19 18:30N 34°02' E 132°31'714.0
2018-Apr-19 18:00N 34°05' E 132°39'1513.0
2018-Apr-19 16:49N 34°10' E 132°57'5812.0
2018-Apr-19 11:59N 34°27' E 134°03'815.3
2018-Apr-19 11:28N 34°25' E 134°13'714.3
2018-Apr-19 11:00N 34°26' E 134°21'713.6
2018-Apr-19 10:28N 34°28' E 134°29'613.5
2018-Apr-19 10:00N 34°31' E 134°36'713.2
2018-Apr-19 09:30N 34°33' E 134°43'612.9
2018-Apr-19 09:00N 34°35' E 134°51'612.5
2018-Apr-19 08:30N 34°37' E 134°58'5 9.2
2018-Apr-19 08:00N 34°36' E 135°03'511.0
2018-Apr-19 07:30N 34°35' E 135°10'612.7
2018-Apr-19 07:00N 34°34' E 135°17'612.4
2018-Apr-19 06:30N 34°33' E 135°25'1 1.7
2018-Apr-19 05:59N 34°33' E 135°25'0 0.0
2018-Apr-19 05:29N 34°33' E 135°25'0 0.0
2018-Apr-19 04:59N 34°33' E 135°25'0 0.0
2018-Apr-19 04:29N 34°33' E 135°25'0 0.0
2018-Apr-19 03:56N 34°33' E 135°25'0 0.0
2018-Apr-19 03:29N 34°33' E 135°25'0 0.0
2018-Apr-19 02:59N 34°33' E 135°25'0 0.0
2018-Apr-19 02:29N 34°33' E 135°25'0 0.0
2018-Apr-19 01:59N 34°33' E 135°25'0 0.0
2018-Apr-19 01:29N 34°33' E 135°25'0 0.0
2018-Apr-19 00:59N 34°33' E 135°25'0 0.0
2018-Apr-19 00:29N 34°33' E 135°25'0 1.0
2018-Apr-19 00:00N 34°33' E 135°25'2 4.2
2018-Apr-18 23:30N 34°33' E 135°23'611.0
2018-Apr-18 23:00N 34°34' E 135°16'611.2
2018-Apr-18 22:30N 34°34' E 135°09'612.6
2018-Apr-18 22:01N 34°36' E 135°02'612.0
2018-Apr-18 21:31N 34°35' E 134°55'713.7
2018-Apr-18 21:00N 34°32' E 134°47'713.3
2018-Apr-18 20:30N 34°30' E 134°40'713.4
2018-Apr-18 20:00N 34°27' E 134°32'713.1
2018-Apr-18 19:30N 34°25' E 134°25'612.6
2018-Apr-18 19:00N 34°24' E 134°18'713.8
2018-Apr-18 18:29N 34°25' E 134°09'2513.9
2018-Apr-18 16:40N 34°18' E 133°40'4712.7
2018-Apr-18 12:59N 34°03' E 132°47'816.1
2018-Apr-18 12:31N 33°56' E 132°42'915.7
2018-Apr-18 11:58N 33°53' E 132°33'715.1
2018-Apr-18 11:30N 33°51' E 132°25'1414.6
2018-Apr-18 10:34N 33°48' E 132°09'214.4
2018-Apr-18 10:26N 33°47' E 132°07'1013.3
2018-Apr-18 09:41N 33°45' E 131°55'213.5
2018-Apr-18 09:30N 33°46' E 131°52'713.7
2018-Apr-18 09:00N 33°47' E 131°44'714.1
2018-Apr-18 08:31N 33°49' E 131°36'714.2
2018-Apr-18 08:00N 33°50' E 131°27'714.4
2018-Apr-18 07:31N 33°51' E 131°19'612.9
2018-Apr-18 07:00N 33°55' E 131°12'2 2.5
2018-Apr-18 06:19N 33°56' E 131°12'0 0.0
2018-Apr-18 05:58N 33°56' E 131°12'0 0.0
2018-Apr-18 05:25N 33°56' E 131°12'0 0.0
2018-Apr-18 04:55N 33°56' E 131°12'0 0.0
2018-Apr-18 04:25N 33°56' E 131°12'0 0.0
2018-Apr-18 03:58N 33°56' E 131°12'0 0.0
2018-Apr-18 03:28N 33°56' E 131°12'0 0.0
2018-Apr-18 02:52N 33°56' E 131°12'0 0.0
2018-Apr-18 02:28N 33°56' E 131°12'0 0.0
2018-Apr-18 01:58N 33°56' E 131°12'0 0.0
2018-Apr-18 01:28N 33°56' E 131°12'0 0.1
2018-Apr-18 01:01N 33°56' E 131°12'3 5.9
2018-Apr-18 00:31N 33°54' E 131°11'0 0.2
2018-Apr-17 23:58N 33°53' E 131°11'0 0.0
2018-Apr-17 23:28N 33°53' E 131°11'0 0.0
2018-Apr-17 22:58N 33°53' E 131°11'0 0.0
2018-Apr-17 22:28N 33°53' E 131°11'0 1.0
2018-Apr-17 22:00N 33°53' E 131°12'713.6
2018-Apr-17 21:30N 33°51' E 131°19'714.1
2018-Apr-17 21:00N 33°50' E 131°28'713.9
2018-Apr-17 20:30N 33°49' E 131°36'713.7
2018-Apr-17 20:00N 33°48' E 131°44'713.6
2018-Apr-17 19:30N 33°46' E 131°52'713.5
2018-Apr-17 19:00N 33°46' E 132°00'714.0
2018-Apr-17 18:30N 33°48' E 132°08'714.1
2018-Apr-17 18:00N 33°50' E 132°16'914.5
2018-Apr-17 17:23N 33°51' E 132°27'514.6
2018-Apr-17 17:00N 33°53' E 132°33'714.5
2018-Apr-17 16:30N 33°57' E 132°41'814.0
2018-Apr-17 15:58N 34°03' E 132°47'7412.0
2018-Apr-17 09:47N 34°25' E 134°12'414.0
2018-Apr-17 09:30N 34°25' E 134°17'713.4
2018-Apr-17 09:00N 34°26' E 134°25'713.2
2018-Apr-17 08:30N 34°29' E 134°32'713.1
2018-Apr-17 08:00N 34°31' E 134°40'612.7
2018-Apr-17 07:30N 34°34' E 134°47'611.9
2018-Apr-17 07:01N 34°36' E 134°53'510.8
2018-Apr-17 06:30N 34°38' E 134°60'4 8.6
2018-Apr-17 06:00N 34°36' E 135°04'612.2
2018-Apr-17 05:30N 34°35' E 135°12'612.7
2018-Apr-17 05:00N 34°34' E 135°19'510.4
2018-Apr-17 04:31N 34°33' E 135°25'0 0.1
2018-Apr-17 04:00N 34°33' E 135°25'0 0.0
2018-Apr-17 03:30N 34°33' E 135°25'0 0.0
2018-Apr-17 03:00N 34°33' E 135°25'0 0.0
2018-Apr-17 02:30N 34°33' E 135°25'0 0.0
2018-Apr-17 02:00N 34°33' E 135°25'0 0.0
2018-Apr-17 01:30N 34°33' E 135°25'0 0.0
2018-Apr-17 01:00N 34°33' E 135°25'0 0.0
2018-Apr-17 00:30N 34°33' E 135°25'0 0.0
2018-Apr-17 00:00N 34°33' E 135°25'0 0.0
2018-Apr-16 23:30N 34°33' E 135°25'0 0.0
2018-Apr-16 23:00N 34°33' E 135°25'0 0.0
2018-Apr-16 22:30N 34°33' E 135°25'1 2.4
2018-Apr-16 22:00N 34°33' E 135°24'510.0
2018-Apr-16 21:30N 34°32' E 135°19'0 0.2
2018-Apr-16 20:58N 34°32' E 135°18'0 0.0
2018-Apr-16 20:28N 34°32' E 135°18'0 0.0
2018-Apr-16 19:58N 34°32' E 135°18'0 0.1
2018-Apr-16 19:28N 34°32' E 135°19'0 0.9
2018-Apr-16 19:01N 34°32' E 135°18'612.9
2018-Apr-16 18:31N 34°34' E 135°11'815.6
2018-Apr-16 18:00N 34°37' E 135°02'816.2
2018-Apr-16 17:31N 34°34' E 134°52'815.0
2018-Apr-16 17:01N 34°31' E 134°44'714.2
2018-Apr-16 16:31N 34°28' E 134°36'713.8
2018-Apr-16 16:00N 34°25' E 134°28'713.9
2018-Apr-16 15:30N 34°23' E 134°20'713.8
2018-Apr-16 15:00N 34°24' E 134°12'7613.0
2018-Apr-16 09:08N 34°06' E 132°43'213.9
2018-Apr-16 09:00N 34°06' E 132°41'713.7
2018-Apr-16 08:28N 34°02' E 132°33'510.9
2018-Apr-16 08:00N 34°05' E 132°27'713.3
2018-Apr-16 07:30N 34°08' E 132°20'612.7
2018-Apr-16 07:00N 34°12' E 132°14'0 0.2
2018-Apr-16 06:30N 34°12' E 132°14'0 0.0
2018-Apr-16 06:00N 34°12' E 132°14'0 0.0
2018-Apr-16 05:30N 34°12' E 132°14'0 0.0
2018-Apr-16 05:00N 34°12' E 132°14'0 0.0
2018-Apr-16 04:27N 34°12' E 132°14'0 0.0
2018-Apr-16 03:45N 34°12' E 132°14'  
Track history (hours):
 
Tides and Currents Weather Stations Pressure Air Temp Water Temp Dewpoint Dewpoint Depression Visibility Wind Speed Wind Dir Waves Ship Positions

Star Phenix

Last reported at 2018-Apr-26 03:27 UTC. Time now 2018-Apr-26 03:39 UTC.
Position N 33°56' E 131°12'.

Length 96 m; draft 4.9 m.

Type: Tanker. MMSI: 431100206.

Date/timePositionNaut miles runAvg speedWind from/ knotsBaromVisibWave heightAir tempDewpointWater temp
2018-Apr-26 03:27N 33°56' E 131°12'0 0.0
2018-Apr-26 03:00N 33°56' E 131°12'0 0.0
2018-Apr-26 02:27N 33°56' E 131°12'0 0.0
2018-Apr-26 02:00N 33°56' E 131°12'0 0.0
2018-Apr-26 01:30N 33°56' E 131°12'0 0.0
2018-Apr-26 01:00N 33°56' E 131°12'0 0.0
2018-Apr-26 00:30N 33°56' E 131°12'1 3.0
2018-Apr-26 00:01N 33°55' E 131°12'1 1.7
2018-Apr-25 23:30N 33°54' E 131°11'0 0.1
2018-Apr-25 23:00N 33°54' E 131°11'0 0.0
2018-Apr-25 22:30N 33°54' E 131°11'0 0.0
2018-Apr-25 22:00N 33°54' E 131°11'0 0.0
2018-Apr-25 21:30N 33°54' E 131°11'0 0.0
2018-Apr-25 21:00N 33°54' E 131°11'0 0.0
2018-Apr-25 20:30N 33°54' E 131°11'0 0.0
2018-Apr-25 20:00N 33°54' E 131°11'0 0.0
2018-Apr-25 19:27N 33°54' E 131°11'0 0.0
2018-Apr-25 19:00N 33°54' E 131°11'0 0.0
2018-Apr-25 18:30N 33°54' E 131°11'0 0.0
2018-Apr-25 18:00N 33°54' E 131°11'0 0.0
2018-Apr-25 17:30N 33°54' E 131°11'0 0.0
2018-Apr-25 17:00N 33°54' E 131°11'0 0.1
2018-Apr-25 16:30N 33°54' E 131°11'0 0.0
2018-Apr-25 16:00N 33°54' E 131°11'0 0.0
2018-Apr-25 15:30N 33°54' E 131°11'0 0.0
2018-Apr-25 15:00N 33°54' E 131°11'0 0.0
2018-Apr-25 14:30N 33°54' E 131°11'0 0.0
2018-Apr-25 14:00N 33°54' E 131°11'0 0.0
2018-Apr-25 13:30N 33°54' E 131°11'0 0.0
2018-Apr-25 13:00N 33°54' E 131°11'0 0.8
2018-Apr-25 12:31N 33°54' E 131°11'5 9.9
2018-Apr-25 12:01N 33°52' E 131°17'713.1
2018-Apr-25 11:31N 33°50' E 131°24'713.0
2018-Apr-25 11:00N 33°49' E 131°32'612.6
2018-Apr-25 10:31N 33°48' E 131°39'612.8
2018-Apr-25 10:00N 33°47' E 131°47'612.7
2018-Apr-25 09:30N 33°46' E 131°55'713.2
2018-Apr-25 09:00N 33°46' E 132°03'713.8
2018-Apr-25 08:28N 33°49' E 132°10'613.3
2018-Apr-25 08:00N 33°50' E 132°18'812.4
2018-Apr-25 07:20N 33°54' E 132°27'412.0
2018-Apr-25 06:58N 33°57' E 132°29'713.3
2018-Apr-25 06:25N 34°04' E 132°25'613.4
2018-Apr-25 06:00N 34°08' E 132°20'612.2
2018-Apr-25 05:31N 34°12' E 132°14'0 0.2
2018-Apr-25 04:53N 34°12' E 132°14'0 0.0
2018-Apr-25 04:26N 34°12' E 132°14'0 0.0
2018-Apr-25 03:38N 34°12' E 132°14'0 0.0
2018-Apr-25 03:23N 34°12' E 132°14'0 0.0
2018-Apr-24 23:38N 34°12' E 132°14'0 0.4
2018-Apr-24 23:29N 34°12' E 132°14'3 5.6
2018-Apr-24 22:53N 34°10' E 132°18'0 0.0
2018-Apr-24 22:29N 34°10' E 132°18'0 0.0
2018-Apr-24 21:59N 34°10' E 132°18'0 0.0
2018-Apr-24 21:29N 34°10' E 132°18'0 0.0
2018-Apr-24 20:59N 34°10' E 132°18'0 0.0
2018-Apr-24 20:26N 34°10' E 132°18'2 4.9
2018-Apr-24 20:00N 34°08' E 132°20'713.4
2018-Apr-24 19:28N 34°04' E 132°26'612.2
2018-Apr-24 18:59N 34°02' E 132°33'613.0
2018-Apr-24 18:30N 34°05' E 132°39'7712.1
2018-Apr-24 12:10N 34°26' E 134°08'412.1
2018-Apr-24 11:51N 34°24' E 134°13'512.6
2018-Apr-24 11:27N 34°24' E 134°19'612.8
2018-Apr-24 10:58N 34°26' E 134°26'612.6
2018-Apr-24 10:30N 34°29' E 134°32'612.5
2018-Apr-24 10:00N 34°31' E 134°39'613.0
2018-Apr-24 09:30N 34°34' E 134°46'713.6
2018-Apr-24 09:00N 34°36' E 134°54'713.5
2018-Apr-24 08:30N 34°37' E 135°02'713.2
2018-Apr-24 08:00N 34°35' E 135°10'713.4
2018-Apr-24 07:30N 34°34' E 135°18'612.1
2018-Apr-24 07:00N 34°33' E 135°25'0 0.7
2018-Apr-24 06:30N 34°33' E 135°25'0 0.0
2018-Apr-24 06:00N 34°33' E 135°25'0 0.0
2018-Apr-24 05:31N 34°33' E 135°25'0 0.0
2018-Apr-24 05:00N 34°33' E 135°25'0 0.0
2018-Apr-24 04:30N 34°33' E 135°25'0 0.0
2018-Apr-24 04:00N 34°33' E 135°25'0 0.0
2018-Apr-24 03:30N 34°33' E 135°25'0 0.0
2018-Apr-24 03:00N 34°33' E 135°25'0 0.0
2018-Apr-24 02:30N 34°33' E 135°25'0 0.0
2018-Apr-24 02:00N 34°33' E 135°25'0 0.0
2018-Apr-24 01:30N 34°33' E 135°25'0 0.0
2018-Apr-24 01:00N 34°33' E 135°25'0 0.0
2018-Apr-24 00:30N 34°33' E 135°25'0 0.0
2018-Apr-24 00:00N 34°33' E 135°25'0 0.1
2018-Apr-23 23:30N 34°33' E 135°25'1 2.5
2018-Apr-23 23:01N 34°33' E 135°24'5 9.7
2018-Apr-23 22:30N 34°32' E 135°18'0 0.1
2018-Apr-23 22:00N 34°32' E 135°18'0 0.0
2018-Apr-23 21:31N 34°32' E 135°18'0 0.0
2018-Apr-23 21:01N 34°32' E 135°18'0 0.1
2018-Apr-23 20:31N 34°32' E 135°18'510.8
2018-Apr-23 20:01N 34°34' E 135°12'713.7
2018-Apr-23 19:30N 34°35' E 135°04'510.7
2018-Apr-23 19:00N 34°36' E 134°58'612.0
2018-Apr-23 18:30N 34°34' E 134°51'612.5
2018-Apr-23 18:00N 34°32' E 134°44'713.6
2018-Apr-23 17:30N 34°29' E 134°36'714.1
2018-Apr-23 17:00N 34°26' E 134°28'713.6
2018-Apr-23 16:30N 34°24' E 134°21'713.3
2018-Apr-23 16:00N 34°24' E 134°13'7711.8
2018-Apr-23 09:29N 34°05' E 132°42'713.7
2018-Apr-23 09:00N 34°03' E 132°35'712.3
2018-Apr-23 08:26N 34°03' E 132°27'614.0
2018-Apr-23 08:00N 34°07' E 132°21'713.4
2018-Apr-23 07:31N 34°11' E 132°15'1 0.5
2018-Apr-23 06:09N 34°12' E 132°14'0 0.0
2018-Apr-23 05:57N 34°12' E 132°14'0 0.0
2018-Apr-23 05:27N 34°12' E 132°14'0 0.0
2018-Apr-23 04:57N 34°12' E 132°14'0 0.0
2018-Apr-23 04:27N 34°12' E 132°14'0 0.0
2018-Apr-23 03:57N 34°12' E 132°14'0 0.0
2018-Apr-23 03:30N 34°12' E 132°14'0 0.0
2018-Apr-23 02:57N 34°12' E 132°14'0 0.0
2018-Apr-23 02:27N 34°12' E 132°14'0 0.0
2018-Apr-23 01:48N 34°12' E 132°14'0 0.0
2018-Apr-23 01:27N 34°12' E 132°14'0 0.0
2018-Apr-23 00:54N 34°12' E 132°14'0 0.0
2018-Apr-22 23:12N 34°12' E 132°14'0 0.0
2018-Apr-22 22:57N 34°12' E 132°14'2 3.9
2018-Apr-22 22:30N 34°13' E 132°15'0 0.6
2018-Apr-22 21:59N 34°13' E 132°14'0 0.0
2018-Apr-22 21:29N 34°13' E 132°14'0 0.0
2018-Apr-22 20:59N 34°13' E 132°14'0 0.0
2018-Apr-22 20:29N 34°13' E 132°14'0 0.0
2018-Apr-22 19:59N 34°13' E 132°14'0 0.0
2018-Apr-22 19:29N 34°13' E 132°14'0 0.0
2018-Apr-22 18:53N 34°13' E 132°14'0 0.0
2018-Apr-22 18:29N 34°13' E 132°14'0 0.0
2018-Apr-22 17:59N 34°13' E 132°14'0 0.0
2018-Apr-22 17:29N 34°13' E 132°14'0 0.0
2018-Apr-22 16:47N 34°13' E 132°14'0 0.0
2018-Apr-22 16:29N 34°13' E 132°14'0 0.0
2018-Apr-22 15:59N 34°13' E 132°14'0 0.0
2018-Apr-22 15:23N 34°13' E 132°14'0 0.0
2018-Apr-22 14:59N 34°13' E 132°14'0 0.0
2018-Apr-22 14:17N 34°13' E 132°14'0 0.0
2018-Apr-22 13:59N 34°13' E 132°14'0 0.0
2018-Apr-22 13:29N 34°13' E 132°14'0 0.0
2018-Apr-22 12:53N 34°13' E 132°14'0 0.0
2018-Apr-22 12:29N 34°13' E 132°14'0 0.0
2018-Apr-22 10:47N 34°13' E 132°14'0 0.0
2018-Apr-22 10:11N 34°13' E 132°14'0 0.0
2018-Apr-22 09:47N 34°13' E 132°14'0 0.0
2018-Apr-22 05:17N 34°13' E 132°14'0 0.0
2018-Apr-22 04:53N 34°13' E 132°14'0 0.0
2018-Apr-22 02:35N 34°13' E 132°14'0 0.0
2018-Apr-22 02:29N 34°13' E 132°14'0 0.0
2018-Apr-22 01:35N 34°13' E 132°14'0 0.0
2018-Apr-22 01:17N 34°13' E 132°14'0 0.0
2018-Apr-22 00:53N 34°13' E 132°14'0 0.0
2018-Apr-21 22:17N 34°13' E 132°14'0 0.0
2018-Apr-21 21:59N 34°13' E 132°14'0 0.0
2018-Apr-21 21:29N 34°13' E 132°14'0 0.0
2018-Apr-21 20:53N 34°13' E 132°14'0 0.0
2018-Apr-21 20:29N 34°13' E 132°14'0 0.0
2018-Apr-21 19:53N 34°13' E 132°14'0 0.0
2018-Apr-21 19:23N 34°13' E 132°14'0 0.0
2018-Apr-21 18:59N 34°13' E 132°14'0 0.0
2018-Apr-21 18:29N 34°13' E 132°14'0 0.0
2018-Apr-21 17:59N 34°13' E 132°14'0 0.0
2018-Apr-21 17:29N 34°13' E 132°14'0 0.0
2018-Apr-21 16:53N 34°13' E 132°14'0 0.0
2018-Apr-21 16:29N 34°13' E 132°14'0 0.0
2018-Apr-21 15:59N 34°13' E 132°14'0 0.0
2018-Apr-21 15:29N 34°13' E 132°14'0 0.0
2018-Apr-21 14:53N 34°13' E 132°14'0 0.0
2018-Apr-21 14:23N 34°13' E 132°14'0 0.0
2018-Apr-21 13:59N 34°13' E 132°14'0 0.0
2018-Apr-21 00:29N 34°13' E 132°14'0 0.0
2018-Apr-20 23:29N 34°13' E 132°14'0 0.0
2018-Apr-20 22:32N 34°13' E 132°14'0 0.0
2018-Apr-20 22:29N 34°13' E 132°14'0 0.0
2018-Apr-20 21:53N 34°13' E 132°14'0 0.0
2018-Apr-20 21:26N 34°13' E 132°14'0 0.0
2018-Apr-20 20:59N 34°13' E 132°14'0 0.0
2018-Apr-20 20:23N 34°13' E 132°14'0 0.0
2018-Apr-20 19:59N 34°13' E 132°14'0 0.0
2018-Apr-20 19:29N 34°13' E 132°14'0 0.0
2018-Apr-20 18:59N 34°13' E 132°14'0 0.0
2018-Apr-20 18:29N 34°13' E 132°14'0 0.0
2018-Apr-20 17:59N 34°13' E 132°14'0 0.0
2018-Apr-20 17:23N 34°13' E 132°14'0 0.0
2018-Apr-20 16:59N 34°13' E 132°14'0 0.0
2018-Apr-20 16:29N 34°13' E 132°14'0 0.0
2018-Apr-20 15:59N 34°13' E 132°14'0 0.0
2018-Apr-20 15:29N 34°13' E 132°14'0 0.0
2018-Apr-20 14:59N 34°13' E 132°14'0 0.0
2018-Apr-20 14:29N 34°13' E 132°14'0 0.0
2018-Apr-20 13:53N 34°13' E 132°14'0 0.0
2018-Apr-20 13:29N 34°13' E 132°14'0 0.0
2018-Apr-20 12:59N 34°13' E 132°14'0 0.0
2018-Apr-20 02:35N 34°13' E 132°14'0 0.0
2018-Apr-20 02:29N 34°13' E 132°14'0 0.0
2018-Apr-20 01:59N 34°13' E 132°14'0 0.0
2018-Apr-20 01:23N 34°13' E 132°14'0 0.0
2018-Apr-20 00:53N 34°13' E 132°14'0 0.0
2018-Apr-20 00:29N 34°13' E 132°14'0 0.0
2018-Apr-19 23:59N 34°13' E 132°14'0 0.4
2018-Apr-19 23:16N 34°13' E 132°15'1 3.3
2018-Apr-19 22:56N 34°13' E 132°16'0 0.0
2018-Apr-19 22:29N 34°13' E 132°16'0 0.0
2018-Apr-19 21:59N 34°13' E 132°16'0 0.0
2018-Apr-19 21:29N 34°13' E 132°16'0 0.0
2018-Apr-19 20:59N 34°13' E 132°16'0 0.0
2018-Apr-19 20:26N 34°13' E 132°16'0 0.1
2018-Apr-19 20:00N 34°13' E 132°16'4 8.6
2018-Apr-19 19:30N 34°09' E 132°19'713.4
2018-Apr-19 19:00N 34°05' E 132°25'612.5
2018-Apr-19 18:30N 34°02' E 132°31'714.0
2018-Apr-19 18:00N 34°05' E 132°39'1513.0
2018-Apr-19 16:49N 34°10' E 132°57'5812.0
2018-Apr-19 11:59N 34°27' E 134°03'815.3
2018-Apr-19 11:28N 34°25' E 134°13'714.3
2018-Apr-19 11:00N 34°26' E 134°21'713.6
2018-Apr-19 10:28N 34°28' E 134°29'613.5
2018-Apr-19 10:00N 34°31' E 134°36'713.2
2018-Apr-19 09:30N 34°33' E 134°43'612.9
2018-Apr-19 09:00N 34°35' E 134°51'612.5
2018-Apr-19 08:30N 34°37' E 134°58'5 9.2
2018-Apr-19 08:00N 34°36' E 135°03'511.0
2018-Apr-19 07:30N 34°35' E 135°10'612.7
2018-Apr-19 07:00N 34°34' E 135°17'612.4
2018-Apr-19 06:30N 34°33' E 135°25'1 1.7
2018-Apr-19 05:59N 34°33' E 135°25'0 0.0
2018-Apr-19 05:29N 34°33' E 135°25'0 0.0
2018-Apr-19 04:59N 34°33' E 135°25'0 0.0
2018-Apr-19 04:29N 34°33' E 135°25'0 0.0
2018-Apr-19 03:56N 34°33' E 135°25'0 0.0
2018-Apr-19 03:29N 34°33' E 135°25'0 0.0
2018-Apr-19 02:59N 34°33' E 135°25'0 0.0
2018-Apr-19 02:29N 34°33' E 135°25'0 0.0
2018-Apr-19 01:59N 34°33' E 135°25'0 0.0
2018-Apr-19 01:29N 34°33' E 135°25'0 0.0
2018-Apr-19 00:59N 34°33' E 135°25'0 0.0
2018-Apr-19 00:29N 34°33' E 135°25'0 1.0
2018-Apr-19 00:00N 34°33' E 135°25'2 4.2
2018-Apr-18 23:30N 34°33' E 135°23'611.0
2018-Apr-18 23:00N 34°34' E 135°16'611.2
2018-Apr-18 22:30N 34°34' E 135°09'612.6
2018-Apr-18 22:01N 34°36' E 135°02'612.0
2018-Apr-18 21:31N 34°35' E 134°55'713.7
2018-Apr-18 21:00N 34°32' E 134°47'713.3
2018-Apr-18 20:30N 34°30' E 134°40'713.4
2018-Apr-18 20:00N 34°27' E 134°32'713.1
2018-Apr-18 19:30N 34°25' E 134°25'612.6
2018-Apr-18 19:00N 34°24' E 134°18'713.8
2018-Apr-18 18:29N 34°25' E 134°09'2513.9
2018-Apr-18 16:40N 34°18' E 133°40'4712.7
2018-Apr-18 12:59N 34°03' E 132°47'816.1
2018-Apr-18 12:31N 33°56' E 132°42'915.7
2018-Apr-18 11:58N 33°53' E 132°33'715.1
2018-Apr-18 11:30N 33°51' E 132°25'1414.6
2018-Apr-18 10:34N 33°48' E 132°09'214.4
2018-Apr-18 10:26N 33°47' E 132°07'1013.3
2018-Apr-18 09:41N 33°45' E 131°55'213.5
2018-Apr-18 09:30N 33°46' E 131°52'713.7
2018-Apr-18 09:00N 33°47' E 131°44'714.1
2018-Apr-18 08:31N 33°49' E 131°36'714.2
2018-Apr-18 08:00N 33°50' E 131°27'714.4
2018-Apr-18 07:31N 33°51' E 131°19'612.9
2018-Apr-18 07:00N 33°55' E 131°12'2 2.5
2018-Apr-18 06:19N 33°56' E 131°12'0 0.0
2018-Apr-18 05:58N 33°56' E 131°12'0 0.0
2018-Apr-18 05:25N 33°56' E 131°12'0 0.0
2018-Apr-18 04:55N 33°56' E 131°12'0 0.0
2018-Apr-18 04:25N 33°56' E 131°12'0 0.0
2018-Apr-18 03:58N 33°56' E 131°12'0 0.0
2018-Apr-18 03:28N 33°56' E 131°12'0 0.0
2018-Apr-18 02:52N 33°56' E 131°12'0 0.0
2018-Apr-18 02:28N 33°56' E 131°12'0 0.0
2018-Apr-18 01:58N 33°56' E 131°12'0 0.0
2018-Apr-18 01:28N 33°56' E 131°12'0 0.1
2018-Apr-18 01:01N 33°56' E 131°12'3 5.9
2018-Apr-18 00:31N 33°54' E 131°11'0 0.2
2018-Apr-17 23:58N 33°53' E 131°11'0 0.0
2018-Apr-17 23:28N 33°53' E 131°11'0 0.0
2018-Apr-17 22:58N 33°53' E 131°11'0 0.0
2018-Apr-17 22:28N 33°53' E 131°11'0 1.0
2018-Apr-17 22:00N 33°53' E 131°12'713.6
2018-Apr-17 21:30N 33°51' E 131°19'714.1
2018-Apr-17 21:00N 33°50' E 131°28'713.9
2018-Apr-17 20:30N 33°49' E 131°36'713.7
2018-Apr-17 20:00N 33°48' E 131°44'713.6
2018-Apr-17 19:30N 33°46' E 131°52'713.5
2018-Apr-17 19:00N 33°46' E 132°00'714.0
2018-Apr-17 18:30N 33°48' E 132°08'714.1
2018-Apr-17 18:00N 33°50' E 132°16'914.5
2018-Apr-17 17:23N 33°51' E 132°27'514.6
2018-Apr-17 17:00N 33°53' E 132°33'714.5
2018-Apr-17 16:30N 33°57' E 132°41'814.0
2018-Apr-17 15:58N 34°03' E 132°47'7412.0
2018-Apr-17 09:47N 34°25' E 134°12'414.0
2018-Apr-17 09:30N 34°25' E 134°17'713.4
2018-Apr-17 09:00N 34°26' E 134°25'713.2
2018-Apr-17 08:30N 34°29' E 134°32'713.1
2018-Apr-17 08:00N 34°31' E 134°40'612.7
2018-Apr-17 07:30N 34°34' E 134°47'611.9
2018-Apr-17 07:01N 34°36' E 134°53'510.8
2018-Apr-17 06:30N 34°38' E 134°60'4 8.6
2018-Apr-17 06:00N 34°36' E 135°04'612.2
2018-Apr-17 05:30N 34°35' E 135°12'612.7
2018-Apr-17 05:00N 34°34' E 135°19'510.4
2018-Apr-17 04:31N 34°33' E 135°25'0 0.1
2018-Apr-17 04:00N 34°33' E 135°25'0 0.0
2018-Apr-17 03:30N 34°33' E 135°25'0 0.0
2018-Apr-17 03:00N 34°33' E 135°25'0 0.0
2018-Apr-17 02:30N 34°33' E 135°25'0 0.0
2018-Apr-17 02:00N 34°33' E 135°25'0 0.0
2018-Apr-17 01:30N 34°33' E 135°25'0 0.0
2018-Apr-17 01:00N 34°33' E 135°25'0 0.0
2018-Apr-17 00:30N 34°33' E 135°25'0 0.0
2018-Apr-17 00:00N 34°33' E 135°25'0 0.0
2018-Apr-16 23:30N 34°33' E 135°25'0 0.0
2018-Apr-16 23:00N 34°33' E 135°25'0 0.0
2018-Apr-16 22:30N 34°33' E 135°25'1 2.4
2018-Apr-16 22:00N 34°33' E 135°24'510.0
2018-Apr-16 21:30N 34°32' E 135°19'0 0.2
2018-Apr-16 20:58N 34°32' E 135°18'0 0.0
2018-Apr-16 20:28N 34°32' E 135°18'0 0.0
2018-Apr-16 19:58N 34°32' E 135°18'0 0.1
2018-Apr-16 19:28N 34°32' E 135°19'0 0.9
2018-Apr-16 19:01N 34°32' E 135°18'612.9
2018-Apr-16 18:31N 34°34' E 135°11'815.6
2018-Apr-16 18:00N 34°37' E 135°02'816.2
2018-Apr-16 17:31N 34°34' E 134°52'815.0
2018-Apr-16 17:01N 34°31' E 134°44'714.2
2018-Apr-16 16:31N 34°28' E 134°36'713.8
2018-Apr-16 16:00N 34°25' E 134°28'713.9
2018-Apr-16 15:30N 34°23' E 134°20'713.8
2018-Apr-16 15:00N 34°24' E 134°12'7613.0
2018-Apr-16 09:08N 34°06' E 132°43'213.9
2018-Apr-16 09:00N 34°06' E 132°41'713.7
2018-Apr-16 08:28N 34°02' E 132°33'510.9
2018-Apr-16 08:00N 34°05' E 132°27'713.3
2018-Apr-16 07:30N 34°08' E 132°20'612.7
2018-Apr-16 07:00N 34°12' E 132°14'0 0.2
2018-Apr-16 06:30N 34°12' E 132°14'0 0.0
2018-Apr-16 06:00N 34°12' E 132°14'0 0.0
2018-Apr-16 05:30N 34°12' E 132°14'0 0.0
2018-Apr-16 05:00N 34°12' E 132°14'0 0.0
2018-Apr-16 04:27N 34°12' E 132°14'0 0.0
2018-Apr-16 03:45N 34°12' E 132°14'  

Dump ship's entire track history